Time;durP1;ratioP1;P1;durP2;ratioP2;P2;SDS_P1;SDS_P2;PMS_P1;PMS_P2;Temp;Humidity;BMP_temperature;BMP_pressure;BME280_temperature;BME280_humidity;BME280_pressure;Samples;Min_cycle;Max_cycle;Signal;HPM_P1;HPM_P2
2022/10/22 08:54:37;;;;;;;3.13;0.90;;;;;;;18.17;89.28;98893.28;5168374;27;21055;-85
2022/10/22 08:57:23;;;;;;;1.43;0.90;;;;;;;18.22;86.98;98874.06;5133289;27;39486;-86
2022/10/22 09:00:02;;;;;;;1.70;0.80;;;;;;;18.70;84.72;98892.75;5133574;27;40662;-86
2022/10/22 09:02:37;;;;;;;0.80;0.80;;;;;;;19.18;81.52;98878.28;5132485;27;41478;-86
2022/10/22 09:05:19;;;;;;;2.27;0.83;;;;;;;19.35;76.76;98901.66;5133033;27;41193;-85
2022/10/22 09:07:49;;;;;;;1.23;0.90;;;;;;;19.38;76.65;98898.69;5132930;27;41886;-86
2022/10/22 09:10:20;;;;;;;0.90;0.53;;;;;;;19.93;74.78;98912.03;5132892;27;42077;-86
2022/10/22 09:12:49;;;;;;;2.10;0.70;;;;;;;20.31;71.77;98906.31;5132487;27;41709;-86
2022/10/22 09:15:19;;;;;;;2.30;0.77;;;;;;;20.58;71.09;98912.59;5132535;27;41323;-86
2022/10/22 09:17:59;;;;;;;1.23;0.73;;;;;;;20.61;71.29;98923.06;5132295;27;39291;-86
2022/10/22 09:20:33;;;;;;;0.70;0.70;;;;;;;20.28;72.23;98906.63;5132983;27;40949;-88
2022/10/22 09:23:16;;;;;;;1.73;0.90;;;;;;;20.12;74.63;98909.19;5132569;27;41945;-86
2022/10/22 09:25:48;;;;;;;3.80;0.90;;;;;;;19.88;74.89;98903.59;5132352;27;42646;-86
2022/10/22 09:28:16;;;;;;;1.47;0.67;;;;;;;19.80;73.21;98914.25;5132633;27;39181;-87
2022/10/22 09:30:44;;;;;;;0.93;0.60;;;;;;;19.50;72.67;98884.06;5132416;27;40970;-86
2022/10/22 09:33:15;;;;;;;0.60;0.57;;;;;;;19.79;73.71;98909.88;5131927;27;43950;-86
2022/10/22 09:35:47;;;;;;;0.60;0.60;;;;;;;20.15;73.53;98914.28;5132633;27;40619;-86
2022/10/22 09:38:20;;;;;;;0.90;0.80;;;;;;;20.47;73.23;98921.78;5132048;27;38757;-87
2022/10/22 09:40:52;;;;;;;1.93;0.60;;;;;;;20.47;72.16;98926.31;5132279;27;40381;-86
2022/10/22 09:43:20;;;;;;;1.83;0.80;;;;;;;20.46;71.99;98913.88;5131988;27;43662;-85
2022/10/22 09:45:48;;;;;;;1.20;0.77;;;;;;;20.90;71.09;98928.94;5132014;27;43033;-86
2022/10/22 09:48:25;;;;;;;1.37;0.60;;;;;;;21.35;69.44;98917.94;5132040;27;39103;-88
2022/10/22 09:50:57;;;;;;;1.43;0.70;;;;;;;22.25;65.59;98931.66;5132140;27;44059;-86
2022/10/22 09:53:28;;;;;;;1.90;0.80;;;;;;;22.98;62.62;98956.75;5131085;27;42735;-87
2022/10/22 09:56:00;;;;;;;3.10;0.70;;;;;;;23.69;61.27;98931.50;5132023;27;42556;-86
2022/10/22 09:58:28;;;;;;;0.80;0.70;;;;;;;24.84;58.79;98962.16;5132073;27;39248;-86
2022/10/22 10:00:58;;;;;;;1.67;0.90;;;;;;;25.78;54.76;98985.84;5131635;27;42319;-87
2022/10/22 10:03:30;;;;;;;2.00;1.07;;;;;;;26.08;54.92;98973.91;5131268;27;42120;-86
2022/10/22 10:06:00;;;;;;;2.53;0.80;;;;;;;26.17;53.87;98977.34;5118145;27;42535;-86
2022/10/22 10:08:27;;;;;;;2.73;1.00;;;;;;;25.71;53.42;98980.34;5117681;27;38860;-87
2022/10/22 10:11:01;;;;;;;1.23;0.90;;;;;;;25.72;55.22;98963.03;5117886;27;42270;-87
2022/10/22 10:13:43;;;;;;;1.10;0.87;;;;;;;26.82;52.15;98993.47;5117660;27;43086;-86
2022/10/22 10:16:29;;;;;;;1.70;0.73;;;;;;;27.60;49.20;98985.22;5118106;27;41496;-87
2022/10/22 10:19:09;;;;;;;1.00;0.70;;;;;;;28.50;48.10;98991.22;5118002;27;39849;-87
2022/10/22 10:21:46;;;;;;;3.40;0.77;;;;;;;29.65;44.80;99036.34;5117822;27;41509;-86
2022/10/22 10:24:22;;;;;;;1.73;0.60;;;;;;;31.21;41.86;99025.84;5135315;27;44138;-87
2022/10/22 10:26:58;;;;;;;1.40;0.50;;;;;;;32.73;39.56;99035.88;5117630;27;42188;-86
2022/10/22 10:29:37;;;;;;;2.10;0.88;;;;;;;33.81;37.57;99049.25;5117917;27;40359;-87
2022/10/22 10:32:30;;;;;;;2.47;0.70;;;;;;;33.42;37.52;99039.81;5117465;27;40776;-87
2022/10/22 10:35:13;;;;;;;1.25;0.70;;;;;;;34.22;36.25;99051.78;5117628;27;42087;-86
2022/10/22 10:37:46;;;;;;;2.85;0.70;;;;;;;35.28;33.67;99044.72;5132753;27;42332;-87
2022/10/22 10:40:24;;;;;;;1.75;0.55;;;;;;;35.36;34.84;99042.63;5117520;27;39224;-87
2022/10/22 10:43:00;;;;;;;0.60;0.60;;;;;;;35.18;35.04;99044.53;5134506;27;41516;-87
2022/10/22 10:45:37;;;;;;;1.35;0.55;;;;;;;34.67;35.17;99047.44;5117458;27;43659;-88
2022/10/22 10:48:17;;;;;;;0.85;0.68;;;;;;;37.01;30.67;99071.78;5117375;27;41075;-85
2022/10/22 10:50:56;;;;;;;1.25;0.63;;;;;;;36.66;31.83;99063.94;5117377;27;39957;-89
2022/10/22 10:53:36;;;;;;;1.45;0.57;;;;;;;36.76;31.45;99066.84;5116598;27;42314;-88
2022/10/22 10:56:17;;;;;;;2.83;0.50;;;;;;;35.69;33.95;99050.00;5117027;27;41730;-88
2022/10/22 10:58:59;;;;;;;1.48;0.73;;;;;;;37.20;30.69;99062.03;5116411;27;41910;-88
2022/10/22 11:01:35;;;;;;;2.90;0.68;;;;;;;37.94;30.04;99062.00;5116859;27;40458;-87
2022/10/22 11:04:19;;;;;;;0.88;0.88;;;;;;;36.57;29.02;99063.59;5116980;27;43003;-88
2022/10/22 11:06:49;;;;;;;0.70;0.70;;;;;;;34.87;32.77;99056.91;5116983;27;42533;-86
2022/10/22 11:09:24;;;;;;;2.28;0.75;;;;;;;33.88;33.87;99031.53;5117186;27;42538;-86
2022/10/22 11:11:57;;;;;;;1.57;0.80;;;;;;;32.95;35.19;98989.50;5116814;27;38680;-87
2022/10/22 11:14:32;;;;;;;1.15;0.70;;;;;;;34.25;32.53;99012.78;5117553;27;41106;-89
2022/10/22 11:17:04;;;;;;;2.88;0.68;;;;;;;34.72;31.14;99053.03;5116131;27;41903;-88
2022/10/22 11:19:37;;;;;;;0.90;0.50;;;;;;;35.60;30.78;99052.38;5117641;27;41399;-87
2022/10/22 11:22:11;;;;;;;0.77;0.70;;;;;;;37.49;29.32;99047.88;5117352;27;39892;-88
2022/10/22 11:24:46;;;;;;;1.30;0.57;;;;;;;39.14;27.61;99054.38;5117028;27;40770;-87
2022/10/22 11:27:26;;;;;;;2.33;0.90;;;;;;;40.80;24.46;99076.38;5116363;27;42090;-85
2022/10/22 11:30:02;;;;;;;0.40;0.40;;;;;;;41.50;24.10;99074.19;5117351;27;41244;-88
2022/10/22 11:32:32;;;;;;;1.67;0.63;;;;;;;42.08;23.83;99056.66;5116842;27;39426;-85
2022/10/22 11:35:04;;;;;;;1.55;0.52;;;;;;;42.47;22.92;99048.09;5119342;27;42448;-86
2022/10/22 11:37:37;;;;;;;1.20;0.60;;;;;;;43.05;23.40;99054.19;5136158;27;44347;-85
2022/10/22 11:40:07;;;;;;;2.08;0.57;;;;;;;43.43;23.07;99063.31;5100583;27;43023;-86
2022/10/22 11:42:38;;;;;;;1.10;0.70;;;;;;;43.62;22.87;99069.72;5134373;27;40221;-84
2022/10/22 11:45:30;;;;;;;2.15;0.50;;;;;;;43.86;21.57;99063.94;5116608;27;40684;-84
2022/10/22 11:48:05;;;;;;;1.95;0.60;;;;;;;43.57;21.19;99074.50;5116228;27;42089;-86
2022/10/22 11:50:49;;;;;;;1.15;0.65;;;;;;;41.98;22.70;99035.34;5117155;27;41052;-86
2022/10/22 11:53:36;;;;;;;2.47;0.43;;;;;;;39.87;24.97;99045.72;5115606;27;41388;-86
2022/10/22 11:56:24;;;;;;;1.27;0.50;;;;;;;37.73;27.82;99016.81;5116691;27;40734;-86
2022/10/22 11:58:55;;;;;;;1.48;0.60;;;;;;;36.21;28.75;98998.88;5115930;27;42831;-86
2022/10/22 12:01:39;;;;;;;5.30;0.70;;;;;;;35.68;29.48;99005.06;5116298;27;42694;-85
2022/10/22 12:04:20;;;;;;;2.50;0.70;;;;;;;35.60;29.62;99002.78;5116532;27;40278;-86
2022/10/22 12:06:54;;;;;;;1.00;0.60;;;;;;;35.33;29.29;98999.06;5133574;27;42450;-86
2022/10/22 12:09:24;;;;;;;0.97;0.63;;;;;;;34.81;29.84;99002.03;5116426;27;42163;-86
2022/10/22 12:11:52;;;;;;;0.77;0.57;;;;;;;33.68;30.79;99000.84;5133096;27;43701;-85
2022/10/22 12:14:25;;;;;;;1.13;0.70;;;;;;;34.84;30.82;98990.56;5116489;27;39113;-86
2022/10/22 12:16:57;;;;;;;1.58;0.60;;;;;;;37.19;27.80;98952.66;5116139;27;40863;-86
2022/10/22 12:19:29;;;;;;;1.27;0.70;;;;;;;39.60;25.93;99011.94;5130968;27;42742;-88
2022/10/22 12:22:00;;;;;;;0.85;0.60;;;;;;;41.21;24.01;99015.81;5115929;27;42211;-86
2022/10/22 12:24:32;;;;;;;0.57;0.50;;;;;;;42.70;22.83;99018.50;5116209;27;41538;-86
2022/10/22 12:26:59;;;;;;;1.15;0.52;;;;;;;43.80;21.05;99031.69;5115519;27;42160;-88
2022/10/22 12:29:29;;;;;;;1.80;0.60;;;;;;;43.50;21.86;99027.50;5115692;27;43607;-86
2022/10/22 12:32:03;;;;;;;1.60;0.65;;;;;;;41.38;22.55;99025.66;5115366;27;41347;-88
2022/10/22 12:34:32;;;;;;;1.25;0.63;;;;;;;39.06;24.40;99002.31;5116694;27;39028;-86
2022/10/22 12:36:59;;;;;;;0.68;0.68;;;;;;;37.18;27.05;98992.41;5115533;27;42084;-85
2022/10/22 12:39:28;;;;;;;1.63;0.70;;;;;;;35.83;27.83;98969.47;5116117;27;44083;-87
2022/10/22 12:41:56;;;;;;;2.10;0.70;;;;;;;34.85;29.29;98956.44;5132867;27;42426;-85
2022/10/22 12:44:24;;;;;;;1.60;0.60;;;;;;;33.69;30.39;98953.09;5133455;27;39951;-88
2022/10/22 12:46:52;;;;;;;0.90;0.77;;;;;;;33.07;30.45;98955.50;5115513;27;40755;-87
2022/10/22 12:49:25;;;;;;;1.87;0.60;;;;;;;32.67;32.46;98935.28;5115746;27;42094;-87
2022/10/22 12:51:53;;;;;;;1.57;0.57;;;;;;;31.98;32.96;98917.56;5115382;27;41380;-87
2022/10/22 12:54:27;;;;;;;1.10;0.80;;;;;;;31.17;33.68;98916.00;5115894;27;39982;-87
2022/10/22 12:56:57;;;;;;;1.00;0.47;;;;;;;30.75;34.49;98927.75;5115592;27;41605;-87
2022/10/22 12:59:27;;;;;;;1.73;0.80;;;;;;;29.99;35.54;98902.22;5115576;27;43329;-86
2022/10/22 13:01:56;;;;;;;0.83;0.70;;;;;;;29.87;36.01;98897.63;5115271;27;41208;-87
2022/10/22 13:04:38;;;;;;;0.97;0.60;;;;;;;30.04;36.02;98915.22;5115482;27;38839;-87
2022/10/22 13:07:28;;;;;;;1.63;0.70;;;;;;;29.98;36.08;98919.66;5116137;27;42728;-87
2022/10/22 13:10:00;;;;;;;0.93;0.60;;;;;;;29.45;37.28;98905.38;5117981;27;42590;-86
2022/10/22 13:12:34;;;;;;;1.53;0.70;;;;;;;29.05;38.74;98909.25;5114846;27;41942;-86
2022/10/22 13:15:21;;;;;;;1.43;0.60;;;;;;;28.47;39.46;98907.16;5115690;27;40303;-86
2022/10/22 13:17:49;;;;;;;0.97;0.70;;;;;;;27.69;39.58;98850.72;5115130;27;41846;-87
2022/10/22 13:20:21;;;;;;;0.90;0.60;;;;;;;27.51;40.71;98884.72;5132434;27;44459;-87
2022/10/22 13:22:56;;;;;;;1.27;0.70;;;;;;;27.25;41.98;98878.31;5132053;27;40855;-87
2022/10/22 13:25:28;;;;;;;2.37;0.90;;;;;;;28.53;41.01;98894.63;5115841;27;39138;-87
2022/10/22 13:28:11;;;;;;;1.77;0.70;;;;;;;30.47;37.68;98903.56;5114805;27;41270;-88
2022/10/22 13:30:51;;;;;;;1.37;0.73;;;;;;;31.04;36.51;98916.94;5115110;27;42114;-86
2022/10/22 13:33:25;;;;;;;2.30;0.50;;;;;;;31.84;36.02;98895.00;5114535;27;43289;-88
2022/10/22 13:35:56;;;;;;;1.10;0.80;;;;;;;32.75;34.73;98924.03;5115309;27;39042;-87
2022/10/22 13:38:28;;;;;;;1.23;0.60;;;;;;;31.91;34.81;98916.81;5114919;27;40829;-87
2022/10/22 13:40:58;;;;;;;1.40;0.70;;;;;;;30.87;36.00;98910.38;5118104;27;41881;-87
2022/10/22 13:43:26;;;;;;;1.20;0.80;;;;;;;29.92;37.41;98895.91;5118427;27;42070;-87
2022/10/22 13:45:57;;;;;;;3.60;0.87;;;;;;;29.39;37.51;98909.00;5118758;27;38795;-87
2022/10/22 13:48:28;;;;;;;1.60;0.80;;;;;;;29.03;38.74;98905.91;5118529;27;42096;-86
2022/10/22 13:50:59;;;;;;;1.17;0.80;;;;;;;28.67;40.23;98901.72;5135467;27;43027;-86
2022/10/22 13:53:29;;;;;;;1.13;0.73;;;;;;;28.08;40.95;98869.81;5117877;27;41466;-87
2022/10/22 13:55:57;;;;;;;1.27;0.60;;;;;;;27.49;41.27;98859.59;5118244;27;40581;-87
2022/10/22 13:58:25;;;;;;;2.30;0.80;;;;;;;27.18;42.05;98867.44;5118844;27;40935;-87
2022/10/22 14:00:55;;;;;;;1.13;0.73;;;;;;;26.76;42.60;98852.09;5118504;27;43998;-87
2022/10/22 14:03:28;;;;;;;0.83;0.70;;;;;;;26.43;43.66;98868.16;5118471;27;43877;-86
2022/10/22 14:05:57;;;;;;;0.67;0.67;;;;;;;26.18;44.38;98885.88;5118291;27;38954;-87
2022/10/22 14:08:27;;;;;;;2.33;0.70;;;;;;;25.91;44.71;98844.06;5117720;27;40582;-87
2022/10/22 14:10:55;;;;;;;1.37;0.50;;;;;;;26.10;44.89;98868.66;5118623;27;42981;-86
2022/10/22 14:13:23;;;;;;;1.50;0.70;;;;;;;25.85;44.85;98829.38;5117636;27;42739;-86
2022/10/22 14:15:52;;;;;;;3.00;0.67;;;;;;;25.97;45.49;98856.84;5118244;27;39051;-87
2022/10/22 14:18:25;;;;;;;2.03;0.87;;;;;;;25.73;45.58;98858.91;5117902;27;41448;-87
2022/10/22 14:20:55;;;;;;;1.47;0.60;;;;;;;25.41;46.18;98857.47;5118214;27;41936;-87
2022/10/22 14:23:27;;;;;;;1.80;0.70;;;;;;;25.14;47.03;98865.47;5117412;27;43611;-87
2022/10/22 14:25:55;;;;;;;2.00;0.87;;;;;;;24.77;47.95;98858.25;5118133;27;40285;-86
2022/10/22 14:28:23;;;;;;;0.83;0.60;;;;;;;24.62;48.78;98866.34;5117479;27;41727;-87
2022/10/22 14:30:52;;;;;;;3.07;0.77;;;;;;;24.33;49.36;98864.44;5117672;27;43114;-86
2022/10/22 14:33:23;;;;;;;2.47;0.63;;;;;;;23.98;49.83;98845.06;5134876;27;41594;-86
2022/10/22 14:35:51;;;;;;;1.70;0.80;;;;;;;23.77;50.50;98844.91;5134968;27;40188;-86
2022/10/22 14:38:19;;;;;;;1.17;0.70;;;;;;;23.57;50.69;98846.41;5118687;27;41583;-87
2022/10/22 14:40:50;;;;;;;1.67;0.70;;;;;;;23.48;51.39;98858.28;5120325;27;41752;-86
2022/10/22 14:43:21;;;;;;;2.67;0.90;;;;;;;23.26;51.08;98857.19;5118548;27;41257;-86
2022/10/22 14:45:49;;;;;;;1.70;0.60;;;;;;;23.08;51.62;98849.34;5121654;27;39136;-87
2022/10/22 14:48:17;;;;;;;2.23;0.70;;;;;;;23.02;51.97;98855.44;5142252;27;42678;-87
2022/10/22 14:50:46;;;;;;;0.90;0.70;;;;;;;22.84;52.19;98849.44;5124600;27;42724;-87
2022/10/22 14:53:15;;;;;;;0.83;0.60;;;;;;;22.86;52.40;98875.25;5124120;27;44159;-86
2022/10/22 14:55:45;;;;;;;0.77;0.60;;;;;;;22.80;52.90;98867.00;5121305;27;38845;-86
2022/10/22 14:58:15;;;;;;;2.00;0.70;;;;;;;22.66;53.48;98851.47;5117205;27;40478;-86
2022/10/22 15:00:43;;;;;;;2.03;0.80;;;;;;;22.70;52.88;98871.72;5117191;27;41867;-86
2022/10/22 15:03:11;;;;;;;1.70;0.90;;;;;;;22.66;53.04;98870.38;5117335;27;41882;-87
2022/10/22 15:05:42;;;;;;;2.20;0.70;;;;;;;22.68;53.07;98871.03;5117315;27;38941;-87
2022/10/22 15:08:12;;;;;;;2.57;0.70;;;;;;;22.55;53.49;98858.91;5116876;27;42834;-86
2022/10/22 15:10:40;;;;;;;2.50;1.07;;;;;;;22.44;53.40;98851.19;5117013;27;41628;-82
2022/10/22 15:13:08;;;;;;;2.43;0.73;;;;;;;22.40;53.37;98882.22;5134079;27;43521;-86
2022/10/22 15:15:40;;;;;;;2.17;0.83;;;;;;;22.39;53.75;98880.53;5117748;27;41254;-86
2022/10/22 15:18:08;;;;;;;1.77;0.80;;;;;;;22.40;54.38;98876.81;5116892;27;41541;-85
2022/10/22 15:20:35;;;;;;;1.20;0.90;;;;;;;22.49;55.04;98883.91;5134481;27;43549;-87
2022/10/22 15:23:03;;;;;;;2.23;0.80;;;;;;;22.48;54.80;98884.91;5116669;27;43142;-86
2022/10/22 15:25:31;;;;;;;3.10;0.73;;;;;;;22.37;54.56;98893.38;5117374;27;40210;-87
2022/10/22 15:27:58;;;;;;;2.93;1.10;;;;;;;22.39;54.32;98912.91;5116644;27;41913;-87
2022/10/22 15:30:26;;;;;;;1.67;0.77;;;;;;;22.29;54.07;98911.41;5116845;27;44396;-86
2022/10/22 15:32:55;;;;;;;1.57;0.80;;;;;;;22.13;54.14;98898.78;5115920;27;42719;-86
2022/10/22 15:35:23;;;;;;;1.73;0.90;;;;;;;22.15;54.62;98916.44;5116619;27;39075;-86
2022/10/22 15:37:51;;;;;;;2.27;0.80;;;;;;;22.06;55.17;98908.53;5116375;27;43961;-86
2022/10/22 15:40:19;;;;;;;1.67;0.60;;;;;;;21.79;54.75;98894.28;5116482;27;44286;-86
2022/10/22 15:42:47;;;;;;;0.80;0.77;;;;;;;21.53;55.77;98888.19;5116472;27;40829;-86
2022/10/22 15:45:14;;;;;;;0.87;0.60;;;;;;;21.43;56.06;98909.03;5116752;27;39111;-86
2022/10/22 15:47:45;;;;;;;3.83;0.90;;;;;;;21.09;56.29;98899.09;5133459;27;41651;-86
2022/10/22 15:50:15;;;;;;;2.97;0.87;;;;;;;20.93;56.45;98911.63;5116405;27;42807;-86
2022/10/22 15:52:43;;;;;;;1.33;0.70;;;;;;;20.74;56.96;98920.78;5115927;27;41934;-86
2022/10/22 15:55:11;;;;;;;1.97;0.70;;;;;;;20.56;57.46;98930.75;5116310;27;38985;-85
2022/10/22 15:57:39;;;;;;;3.43;1.17;;;;;;;20.29;58.21;98920.91;5116034;27;40917;-85
2022/10/22 16:00:08;;;;;;;1.67;0.90;;;;;;;20.20;58.22;98932.63;5116285;27;41640;-86
2022/10/22 16:02:42;;;;;;;1.83;0.90;;;;;;;20.04;58.46;98930.63;5114957;27;42289;-86
2022/10/22 16:05:10;;;;;;;4.60;1.00;;;;;;;19.82;59.47;98928.38;5116130;27;38996;-85
2022/10/22 16:07:39;;;;;;;1.07;0.90;;;;;;;19.62;59.69;98919.63;5115739;27;40709;-86
2022/10/22 16:10:11;;;;;;;1.53;1.10;;;;;;;19.33;60.22;98893.75;5116265;27;42013;-87
2022/10/22 16:12:39;;;;;;;3.27;1.03;;;;;;;19.35;61.04;98924.00;5115853;27;42903;-86
2022/10/22 16:15:09;;;;;;;1.40;0.83;;;;;;;19.28;61.47;98938.19;5116446;27;38721;-86
2022/10/22 16:17:37;;;;;;;0.70;0.70;;;;;;;19.19;61.14;98945.25;5115674;27;40786;-86
2022/10/22 16:20:06;;;;;;;2.60;1.00;;;;;;;19.09;62.25;98941.78;5112480;27;41595;-86
2022/10/22 16:22:34;;;;;;;2.83;0.80;;;;;;;18.89;63.05;98930.28;5111367;27;41085;-86
2022/10/22 16:25:03;;;;;;;2.70;1.20;;;;;;;18.89;62.98;98954.44;5114421;27;38813;-86
2022/10/22 16:27:31;;;;;;;2.63;1.70;;;;;;;18.79;62.95;98948.22;5113376;27;40668;-87
2022/10/22 16:29:59;;;;;;;2.13;1.10;;;;;;;18.70;63.43;98951.78;5113110;27;41577;-86
2022/10/22 16:32:27;;;;;;;2.13;1.27;;;;;;;18.59;63.43;98951.94;5114877;27;41884;-87
2022/10/22 16:34:55;;;;;;;2.03;1.20;;;;;;;18.38;63.11;98935.16;5115804;27;39841;-86
2022/10/22 16:37:23;;;;;;;1.60;1.00;;;;;;;18.40;64.24;98962.69;5115229;27;40736;-86
2022/10/22 16:39:51;;;;;;;2.40;1.13;;;;;;;18.24;63.88;98957.88;5115442;27;41693;-86
2022/10/22 16:42:20;;;;;;;1.47;1.20;;;;;;;18.05;63.96;98939.97;5105955;28;42447;-86
2022/10/22 16:44:47;;;;;;;0.87;0.73;;;;;;;18.07;64.98;98966.63;5129404;27;40897;-86
2022/10/22 16:47:16;;;;;;;1.37;1.27;;;;;;;17.94;65.01;98958.84;5094449;28;42516;-86
2022/10/22 16:49:43;;;;;;;2.70;1.47;;;;;;;17.75;65.32;98956.16;5095430;28;43487;-86
2022/10/22 16:52:11;;;;;;;1.60;1.17;;;;;;;17.67;65.45;98956.03;5111443;28;42158;-86
2022/10/22 16:54:39;;;;;;;3.27;1.60;;;;;;;17.56;65.80;98956.91;5110170;27;40039;-86
2022/10/22 16:57:07;;;;;;;2.10;1.20;;;;;;;17.46;66.17;98953.38;5102628;28;41440;-85
2022/10/22 16:59:36;;;;;;;3.50;1.10;;;;;;;17.39;66.25;98955.78;5094575;28;42160;-86
2022/10/22 17:02:04;;;;;;;2.03;1.17;;;;;;;17.34;67.31;98958.00;5094178;28;41584;-86
2022/10/22 17:04:32;;;;;;;2.83;1.37;;;;;;;17.24;67.10;98946.41;5129133;27;40245;-86
2022/10/22 17:06:59;;;;;;;3.10;1.50;;;;;;;17.28;67.39;98969.25;5118473;27;43091;-85
2022/10/22 17:09:27;;;;;;;2.63;1.40;;;;;;;17.12;68.28;98950.19;5114848;27;44514;-85
2022/10/22 17:11:55;;;;;;;1.53;1.13;;;;;;;17.14;67.90;98972.31;5114891;27;42948;-86
2022/10/22 17:14:23;;;;;;;1.80;1.40;;;;;;;16.99;68.91;98962.94;5116410;27;39207;-86
2022/10/22 17:16:53;;;;;;;3.10;1.40;;;;;;;16.91;69.04;98960.94;5118221;27;40748;-86
2022/10/22 17:19:21;;;;;;;2.93;1.60;;;;;;;16.93;69.56;98980.38;5118541;27;43194;-85
2022/10/22 17:21:52;;;;;;;2.80;1.50;;;;;;;16.82;69.76;98983.94;5118277;27;41662;-85
2022/10/22 17:24:20;;;;;;;1.97;1.47;;;;;;;16.68;69.67;98981.63;5118636;27;38877;-86
2022/10/22 17:26:48;;;;;;;3.13;1.47;;;;;;;16.76;69.76;98989.00;5135754;27;42906;-86
2022/10/22 17:29:16;;;;;;;1.93;1.20;;;;;;;16.33;69.91;98928.44;5135639;27;44437;-85
2022/10/22 17:31:44;;;;;;;4.63;2.00;;;;;;;16.45;70.23;98966.66;5118190;27;42064;-85
2022/10/22 17:34:16;;;;;;;2.60;1.53;;;;;;;16.35;70.03;98963.91;5118420;27;40457;-85
2022/10/22 17:36:44;;;;;;;3.33;1.37;;;;;;;16.48;70.15;99001.16;5135921;27;41955;-85
2022/10/22 17:39:16;;;;;;;2.03;1.27;;;;;;;16.35;69.92;98985.28;5117619;27;42006;-85
2022/10/22 17:41:44;;;;;;;1.60;1.37;;;;;;;16.30;69.59;98986.69;5118648;27;40649;-85
2022/10/22 17:44:13;;;;;;;5.13;1.97;;;;;;;16.16;69.42;98980.66;5118494;27;40577;-85
2022/10/22 17:46:42;;;;;;;3.37;1.90;;;;;;;16.25;69.83;99002.25;5118213;27;42015;-86
2022/10/22 17:49:17;;;;;;;2.23;1.80;;;;;;;16.07;69.77;98981.41;5118131;27;41849;-86
2022/10/22 17:51:45;;;;;;;2.43;1.97;;;;;;;16.03;69.82;98996.00;5118123;27;42216;-86
2022/10/22 17:54:13;;;;;;;3.57;1.90;;;;;;;16.04;69.99;98997.72;5118101;27;40118;-85
2022/10/22 17:56:41;;;;;;;3.30;2.10;;;;;;;15.96;70.58;99000.16;5118246;27;40528;-85
2022/10/22 17:59:12;;;;;;;2.43;2.13;;;;;;;15.82;70.74;98982.56;5098778;28;43359;-85
2022/10/22 18:01:44;;;;;;;2.63;1.87;;;;;;;15.73;70.65;98982.50;5121084;27;43311;-86
2022/10/22 18:04:15;;;;;;;5.43;3.00;;;;;;;15.61;70.60;98983.50;5134458;27;40567;-85
2022/10/22 18:06:44;;;;;;;3.67;2.67;;;;;;;15.66;70.57;98997.31;5131299;27;42612;-86
2022/10/22 18:09:12;;;;;;;4.17;2.90;;;;;;;15.60;70.51;99009.34;5113855;28;41780;-85
2022/10/22 18:11:40;;;;;;;3.13;2.70;;;;;;;15.55;70.46;99016.03;5114330;28;42751;-85
2022/10/22 18:14:08;;;;;;;4.03;3.30;;;;;;;15.47;70.48;99016.59;5101233;28;38557;-85
2022/10/22 18:16:36;;;;;;;4.10;3.33;;;;;;;15.44;70.69;99020.38;5097217;28;42094;-85
2022/10/22 18:19:04;;;;;;;4.57;3.50;;;;;;;15.31;70.74;99003.66;5109067;27;43462;-85
2022/10/22 18:21:33;;;;;;;4.57;3.60;;;;;;;15.22;70.42;98998.16;5116955;27;43206;-87
2022/10/22 18:24:01;;;;;;;5.53;3.40;;;;;;;15.10;70.79;98989.31;5122124;27;39118;-85
2022/10/22 18:26:29;;;;;;;4.90;2.77;;;;;;;15.16;70.86;99015.53;5106696;28;42951;-85
2022/10/22 18:28:58;;;;;;;4.33;3.47;;;;;;;15.00;70.72;98997.19;5107256;27;42244;-85
2022/10/22 18:31:29;;;;;;;4.13;3.30;;;;;;;15.04;70.78;99014.66;5131793;27;43580;-86
2022/10/22 18:33:57;;;;;;;4.17;3.20;;;;;;;15.01;71.18;99016.72;5117306;27;40792;-85
2022/10/22 18:36:27;;;;;;;4.37;3.50;;;;;;;14.93;71.30;99012.00;5103285;28;42335;-85
2022/10/22 18:38:58;;;;;;;3.47;2.57;;;;;;;14.88;71.04;99015.97;5100031;27;45163;-85
2022/10/22 18:41:28;;;;;;;3.87;3.03;;;;;;;14.94;71.11;99031.50;5114060;28;41344;-85
2022/10/22 18:43:58;;;;;;;2.97;2.50;;;;;;;14.78;71.24;99015.84;5113601;27;39082;-85
2022/10/22 18:46:27;;;;;;;3.70;3.00;;;;;;;14.85;71.97;99037.53;5113040;27;40567;-86
2022/10/22 18:48:56;;;;;;;4.03;2.90;;;;;;;14.82;71.75;99037.78;5114058;27;41613;-86
2022/10/22 18:51:24;;;;;;;3.37;2.60;;;;;;;14.77;71.80;99039.94;5115823;27;41118;-86
2022/10/22 18:53:54;;;;;;;3.33;2.57;;;;;;;14.52;72.72;99004.50;5103100;27;40672;-85
2022/10/22 18:56:24;;;;;;;3.97;2.57;;;;;;;14.62;73.10;99024.16;5129130;27;41922;-85
2022/10/22 18:58:51;;;;;;;2.70;2.30;;;;;;;14.63;73.65;99031.19;5115669;27;42950;-85
2022/10/22 19:01:21;;;;;;;4.33;2.90;;;;;;;14.53;73.57;99022.19;5116942;27;41572;-85
2022/10/22 19:03:50;;;;;;;3.50;2.63;;;;;;;14.23;74.63;98972.03;5116884;27;40433;-85
2022/10/22 19:06:25;;;;;;;4.60;2.73;;;;;;;14.47;74.49;99011.13;5116984;27;40889;-85
2022/10/22 19:08:54;;;;;;;5.60;2.83;;;;;;;14.41;74.80;99001.81;5116780;27;42533;-86
2022/10/22 19:11:23;;;;;;;5.00;3.30;;;;;;;14.49;75.10;99022.53;5117196;27;44492;-85
2022/10/22 19:13:51;;;;;;;3.77;3.10;;;;;;;14.36;74.80;99006.59;5110504;28;38669;-85
2022/10/22 19:16:23;;;;;;;3.87;2.60;;;;;;;14.44;75.36;99027.38;5096358;28;42190;-85
2022/10/22 19:18:52;;;;;;;4.70;3.30;;;;;;;14.31;74.81;99016.75;5095871;28;41790;-85
2022/10/22 19:21:20;;;;;;;5.10;2.87;;;;;;;14.39;74.86;99027.69;5096015;28;43563;-86
2022/10/22 19:23:49;;;;;;;4.40;2.40;;;;;;;14.21;75.04;99000.63;5095809;28;39302;-86
2022/10/22 19:26:20;;;;;;;3.77;2.80;;;;;;;14.16;75.19;98991.28;5096429;28;40865;-86
2022/10/22 19:28:49;;;;;;;3.30;3.00;;;;;;;13.93;74.85;98972.53;5107871;28;41822;-86
2022/10/22 19:31:19;;;;;;;3.13;2.20;;;;;;;14.19;74.70;99009.69;5101652;27;41169;-85
2022/10/22 19:33:47;;;;;;;3.40;2.87;;;;;;;14.16;74.98;99020.56;5116497;27;39076;-85
2022/10/22 19:36:17;;;;;;;10.63;6.50;;;;;;;14.21;75.43;99029.09;5116648;27;42025;-86
2022/10/22 19:38:47;;;;;;;29.17;16.47;;;;;;;14.12;75.71;99011.09;5100221;28;42867;-85
2022/10/22 19:41:17;;;;;;;29.27;17.40;;;;;;;14.05;75.49;99017.84;5096294;28;42382;-85
2022/10/22 19:43:50;;;;;;;28.33;16.17;;;;;;;14.12;75.66;99027.94;5096231;28;40743;-85
2022/10/22 19:46:19;;;;;;;33.03;17.60;;;;;;;14.01;75.59;99019.88;5097192;27;40859;-86
2022/10/22 19:48:47;;;;;;;27.77;15.17;;;;;;;13.95;75.81;99010.56;5115927;27;43478;-85
2022/10/22 19:51:16;;;;;;;18.80;11.93;;;;;;;14.02;75.75;99042.91;5116364;27;43303;-86
2022/10/22 19:53:44;;;;;;;19.67;11.90;;;;;;;13.89;75.99;99021.66;5115946;27;39091;-85
2022/10/22 19:56:12;;;;;;;16.87;9.80;;;;;;;13.97;75.96;99040.56;5116401;27;42261;-86
2022/10/22 19:58:40;;;;;;;14.30;8.37;;;;;;;13.87;76.03;99023.56;5133108;27;45271;-86
2022/10/22 20:01:11;;;;;;;11.47;7.50;;;;;;;13.59;75.56;98982.16;5116123;27;41193;-86
2022/10/22 20:03:39;;;;;;;10.47;7.00;;;;;;;13.80;75.85;99025.00;5116027;27;40506;-85
2022/10/22 20:06:09;;;;;;;9.17;6.20;;;;;;;13.86;76.04;99037.84;5116616;27;41838;-85
2022/10/22 20:08:38;;;;;;;7.20;5.00;;;;;;;13.80;76.15;99027.66;5115786;27;42071;-85
2022/10/22 20:11:09;;;;;;;5.83;4.30;;;;;;;13.70;75.87;99015.97;5133526;27;42317;-85
2022/10/22 20:13:37;;;;;;;6.43;5.07;;;;;;;13.78;76.18;99034.03;5116410;27;41394;-85
2022/10/22 20:16:05;;;;;;;9.77;8.67;;;;;;;13.64;76.30;99027.06;5116070;27;40689;-86
2022/10/22 20:18:34;;;;;;;11.60;9.13;;;;;;;13.69;76.54;99040.03;5115712;27;42956;-85
2022/10/22 20:21:04;;;;;;;11.27;9.50;;;;;;;13.59;76.54;99030.06;5091481;28;41126;-86
2022/10/22 20:23:32;;;;;;;12.87;10.17;;;;;;;13.55;76.66;99019.75;5112460;28;39595;-86
2022/10/22 20:26:00;;;;;;;11.07;9.00;;;;;;;13.52;76.71;99026.13;5112777;28;42247;-85
2022/10/22 20:28:29;;;;;;;11.47;8.77;;;;;;;13.51;76.80;99026.22;5111786;27;42046;-86
2022/10/22 20:30:57;;;;;;;9.80;7.67;;;;;;;13.48;76.94;99029.97;5112214;28;41188;-86
2022/10/22 20:33:24;;;;;;;11.20;7.33;;;;;;;13.49;76.98;99031.66;5112372;28;38511;-86
2022/10/22 20:36:01;;;;;;;8.00;6.47;;;;;;;13.45;76.88;99029.34;5114134;27;40778;-85
2022/10/22 20:38:29;;;;;;;8.50;6.70;;;;;;;13.50;76.72;99043.16;5115186;27;43144;-86
2022/10/22 20:41:02;;;;;;;8.33;7.43;;;;;;;13.54;76.66;99049.97;5131595;27;43149;-86
2022/10/22 20:43:29;;;;;;;7.00;6.23;;;;;;;13.42;76.58;99032.22;5114319;27;38861;-85